Impacts METAR Board
IDs:

KFLL - Ft Lauderdale-Hollyw, FL, US

Updated at: 2000 UTC 15 Jun 2019
Potential Impact None Slight Moderate High
Time 15/08Z 15/09Z 15/10Z 15/11Z 15/12Z 15/13Z 15/14Z 15/15Z 15/16Z 15/17Z 15/18Z 15/19Z 15/20Z
Temp78 78 78 78 79 77 80 83 83 85 88 85 83
Dewpt75 75 75 75 76 75 76 77 74 73 76 75 74
Altim30.02 30.03 30.04 30.06 30.07 30.08 30.08 30.09 30.10 30.09 30.06 30.06 30.05
VIS10 10 10 10 9 6 10 10 9 10 10 10 10
CIG-- -- -- 120 200 40 65 250 28 90 250 220 60
CoverSCTSCTSCTBKNBKNBKNBKNBKNBKNBKNBKNBKNBKN
FltCatVFRVFRVFRVFRVFRVFRVFRVFRMVFRVFRVFRVFRVFR
WX----------RA BR----VCTS--------
WDir0003400203050140140130120150
WSpd0 0 0 4 0 6 4 7 11 9 11 14 15
WGst-- -- -- -- -- -- -- -- -- -- -- -- --
Raw hourly METARs
KFLL 150753Z 00000KT 10SM FEW020 FEW110 SCT230 26/24 A3002 RMK AO2 SLP166 T02560239 $
KFLL 150853Z 00000KT 10SM SCT220 26/24 A3003 RMK AO2 SLP168 T02560239 55010 $
KFLL 150953Z 00000KT 10SM FEW110 SCT230 26/24 A3004 RMK AO2 SLP171 T02560239 $
KFLL 151053Z 34004KT 10SM FEW019TCU FEW065 BKN120 26/24 A3006 RMK AO2 SLP178 TCU E T02560239 $
KFLL 151153Z 00000KT 9SM SCT015 SCT022CB SCT065 BKN200 26/24 A3007 RMK AO2 SLP181 CB N-E-S MOV NW VCSH NE-SE 70049 T02610244 10261 20250 53013 $
KFLL 151253Z 02006KT 6SM RA BR SCT023CB BKN040 BKN060 25/24 A3008 RMK AO2 RAB13 TSB34E49 SLP184 CB OHD-NW-NE MOV NW P0018 T02500239 $
KFLL 151353Z 03004KT 10SM SCT043 BKN065 BKN100 27/24 A3008 RMK AO2 RAE51 SLP186 CB DSNT N VCSH E T02670244 $
KFLL 151453Z 05007KT 10SM SCT024CB SCT065 BKN250 28/25 A3009 RMK AO2 SLP189 CB NE-E AND SE MOV NW VCSH E P0001 6//// T02830250 53008 $
KFLL 151604Z 14011KT 9SM VCTS SCT022CB BKN028 BKN045 BKN250 28/23 A3010 RMK AO2 LTG DSNT SW CB SE-SW MOV W T02830233 $
KFLL 151653Z 14009KT 10SM SCT024 SCT045 BKN090 29/23 A3009 RMK AO2 LTG DSNT SW AND W SLP188 CB DSNT S T02940228 $
KFLL 151753Z 13011KT 10SM SCT024 SCT050 BKN250 31/24 A3006 RMK AO2 LTG DSNT NW SLP179 6//// T03110244 10311 20244 58010 $
KFLL 151853Z 12014KT 10SM SCT021 SCT055 BKN220 29/24 A3006 RMK AO2 LTG DSNT W AND NW SLP177 T02940239 $
KFLL 151953Z 15015KT 10SM SCT025 BKN060 BKN110 BKN220 28/23 A3005 RMK AO2 LTG DSNT W AND NW SLP175 CB DSNT E AND SW-NW T02830233 $



Page loaded:  20:30 UTC  |   01:30 PM Pacific  |   02:30 PM Mountain  |   03:30 PM Central  |   04:30 PM Eastern

 

ADVISORIES

FORECASTS

FORECASTS

OBSERVATIONS

USER TOOLS

ABOUT US